Time;durP1;ratioP1;P1;durP2;ratioP2;P2;SDS_P1;SDS_P2;PMS_P1;PMS_P2;Temp;Humidity;BMP_temperature;BMP_pressure;BME280_temperature;BME280_humidity;BME280_pressure;Samples;Min_cycle;Max_cycle;Signal;HPM_P1;HPM_P2
2023/07/25 00:01:15;;;;;;;13.05;4.75;;;;;;;;;;5053252;28;20041;-70
2023/07/25 00:03:44;;;;;;;9.50;4.10;;;;;;;;;;5047272;28;20058;-70
2023/07/25 00:06:11;;;;;;;11.18;4.28;;;;;;;;;;5063854;28;20052;-70
2023/07/25 00:08:39;;;;;;;7.93;3.72;;;;;;;;;;5054138;28;20561;-71
2023/07/25 00:11:07;;;;;;;8.75;3.70;;;;;;;;;;5070413;28;20056;-70
2023/07/25 00:13:38;;;;;;;10.02;3.83;;;;;;;;;;5062738;28;21003;-71
2023/07/25 00:16:06;;;;;;;7.90;3.90;;;;;;;;;;5042754;28;20044;-71
2023/07/25 00:18:34;;;;;;;7.90;3.67;;;;;;;;;;5059695;28;20062;-68
2023/07/25 00:21:01;;;;;;;10.85;4.20;;;;;;;;;;5066327;28;20069;-67
2023/07/25 00:23:29;;;;;;;9.93;4.75;;;;;;;;;;5057348;28;20052;-70
2023/07/25 00:25:58;;;;;;;12.02;4.25;;;;;;;;;;5073702;28;20044;-71
2023/07/25 00:28:25;;;;;;;10.50;4.07;;;;;;;;;;5046484;28;20571;-70
2023/07/25 00:30:54;;;;;;;11.65;4.63;;;;;;;;;;5065580;28;20509;-70
2023/07/25 00:33:22;;;;;;;8.65;4.35;;;;;;;;;;5069194;28;20044;-69
2023/07/25 00:35:53;;;;;;;11.70;4.50;;;;;;;;;;5069113;28;20052;-69
2023/07/25 00:38:20;;;;;;;10.48;4.75;;;;;;;;;;5056042;28;20044;-70
2023/07/25 00:40:48;;;;;;;9.47;4.23;;;;;;;;;;5069387;28;20067;-70
2023/07/25 00:43:16;;;;;;;10.45;5.05;;;;;;;;;;5053680;28;20059;-69
2023/07/25 00:45:45;;;;;;;11.52;4.50;;;;;;;;;;5046036;28;20040;-69
2023/07/25 00:48:15;;;;;;;10.57;4.18;;;;;;;;;;5069107;28;20059;-69
2023/07/25 00:50:44;;;;;;;7.13;3.40;;;;;;;;;;5058669;28;20131;-69
2023/07/25 00:53:13;;;;;;;8.93;3.93;;;;;;;;;;5074061;28;20044;-69
2023/07/25 00:55:41;;;;;;;9.63;3.63;;;;;;;;;;5059287;28;20441;-69
2023/07/25 00:58:09;;;;;;;7.70;3.47;;;;;;;;;;5073327;28;20048;-70
2023/07/25 01:00:41;;;;;;;8.13;3.08;;;;;;;;;;5062307;28;20063;-65
2023/07/25 01:03:09;;;;;;;12.20;3.20;;;;;;;;;;5037057;28;20495;-69
2023/07/25 01:05:40;;;;;;;9.20;3.13;;;;;;;;;;5038550;28;20060;-69
2023/07/25 01:08:07;;;;;;;10.57;3.38;;;;;;;;;;5063081;28;20052;-69
2023/07/25 01:10:38;;;;;;;7.28;3.20;;;;;;;;;;5068703;28;20036;-69
2023/07/25 01:13:06;;;;;;;8.95;3.60;;;;;;;;;;5065988;28;20054;-68
2023/07/25 01:15:33;;;;;;;8.75;3.40;;;;;;;;;;5053658;28;20495;-69
2023/07/25 01:18:02;;;;;;;8.10;3.00;;;;;;;;;;5071036;28;20058;-68
2023/07/25 01:20:35;;;;;;;8.00;2.70;;;;;;;;;;5058644;28;20063;-68
2023/07/25 01:23:05;;;;;;;7.82;3.20;;;;;;;;;;5063979;28;20047;-68
2023/07/25 01:25:34;;;;;;;7.90;2.90;;;;;;;;;;5066665;28;20040;-69
2023/07/25 01:28:02;;;;;;;8.27;3.47;;;;;;;;;;5063068;28;20048;-70
2023/07/25 01:30:30;;;;;;;8.27;2.87;;;;;;;;;;5064506;28;20036;-69
2023/07/25 01:32:58;;;;;;;9.13;3.47;;;;;;;;;;5047153;28;20044;-69
2023/07/25 01:35:26;;;;;;;9.80;3.15;;;;;;;;;;5069768;28;20074;-69
2023/07/25 01:37:53;;;;;;;6.93;2.90;;;;;;;;;;5051499;28;20040;-70
2023/07/25 01:40:21;;;;;;;7.70;2.75;;;;;;;;;;5067086;28;20056;-69
2023/07/25 01:42:50;;;;;;;7.10;2.70;;;;;;;;;;5056209;28;20052;-70
2023/07/25 01:45:18;;;;;;;8.32;2.95;;;;;;;;;;5032479;28;20047;-70
2023/07/25 01:47:45;;;;;;;8.13;2.90;;;;;;;;;;5064047;28;20074;-69
2023/07/25 01:50:13;;;;;;;8.88;2.95;;;;;;;;;;5059267;28;20563;-70
2023/07/25 01:52:45;;;;;;;6.22;2.53;;;;;;;;;;5051184;28;20046;-70
2023/07/25 01:55:13;;;;;;;7.63;2.27;;;;;;;;;;5063275;28;20172;-69
2023/07/25 01:57:42;;;;;;;6.93;2.33;;;;;;;;;;5047488;28;20072;-68
2023/07/25 02:00:12;;;;;;;12.85;2.95;;;;;;;;;;5061348;28;20546;-72
2023/07/25 02:02:40;;;;;;;7.60;2.78;;;;;;;;;;5056423;28;20128;-69
2023/07/25 02:05:07;;;;;;;11.13;2.58;;;;;;;;;;5063565;28;20048;-68
2023/07/25 02:07:35;;;;;;;7.30;2.30;;;;;;;;;;5054809;28;20502;-70
2023/07/25 02:10:03;;;;;;;7.22;2.47;;;;;;;;;;5064497;28;20774;-69
2023/07/25 02:12:31;;;;;;;7.22;2.28;;;;;;;;;;5063618;28;20056;-69
2023/07/25 02:14:58;;;;;;;10.77;2.55;;;;;;;;;;5066519;28;20052;-69
2023/07/25 02:17:28;;;;;;;7.65;2.30;;;;;;;;;;5057582;28;20056;-69
2023/07/25 02:19:55;;;;;;;9.40;2.23;;;;;;;;;;5077549;28;20044;-68
2023/07/25 02:22:23;;;;;;;6.80;2.50;;;;;;;;;;5069814;28;20055;-69
2023/07/25 02:24:51;;;;;;;5.95;2.35;;;;;;;;;;5069490;28;20058;-69
2023/07/25 02:27:18;;;;;;;9.65;2.45;;;;;;;;;;5056363;28;20047;-68
2023/07/25 02:29:46;;;;;;;5.82;2.15;;;;;;;;;;5061714;28;20048;-71
2023/07/25 02:32:14;;;;;;;7.50;2.30;;;;;;;;;;5066818;28;20044;-70
2023/07/25 02:34:44;;;;;;;6.50;2.30;;;;;;;;;;5040128;28;20048;-71
2023/07/25 02:37:11;;;;;;;6.30;2.33;;;;;;;;;;5051765;28;20490;-71
2023/07/25 02:39:39;;;;;;;5.90;2.28;;;;;;;;;;5049803;28;20076;-71
2023/07/25 02:42:07;;;;;;;6.90;2.70;;;;;;;;;;5059963;28;20055;-71
2023/07/25 02:44:34;;;;;;;6.20;2.10;;;;;;;;;;5068655;28;20049;-71
2023/07/25 02:47:02;;;;;;;6.07;2.08;;;;;;;;;;5057393;28;20421;-71
2023/07/25 02:49:35;;;;;;;6.32;2.40;;;;;;;;;;5068416;28;20486;-71
2023/07/25 02:52:04;;;;;;;6.80;1.95;;;;;;;;;;5054741;28;20048;-70
2023/07/25 02:54:32;;;;;;;7.57;2.25;;;;;;;;;;5063129;28;20043;-71
2023/07/25 02:56:59;;;;;;;8.40;2.10;;;;;;;;;;5060754;28;20059;-70
2023/07/25 02:59:29;;;;;;;9.23;2.45;;;;;;;;;;5069364;28;20071;-69
2023/07/25 03:01:57;;;;;;;5.47;2.08;;;;;;;;;;5059378;28;20036;-69
2023/07/25 03:04:25;;;;;;;7.65;2.15;;;;;;;;;;5070631;28;20089;-69
2023/07/25 03:06:53;;;;;;;8.02;2.15;;;;;;;;;;5044244;28;20119;-70
2023/07/25 03:09:22;;;;;;;6.43;1.87;;;;;;;;;;5066416;28;20071;-70
2023/07/25 03:11:49;;;;;;;8.98;2.10;;;;;;;;;;5048432;28;20323;-70
2023/07/25 03:14:17;;;;;;;6.40;1.92;;;;;;;;;;5077484;28;20059;-69
2023/07/25 03:16:45;;;;;;;7.78;1.92;;;;;;;;;;5057509;28;20403;-70
2023/07/25 03:19:13;;;;;;;6.72;2.10;;;;;;;;;;5070471;28;20441;-69
2023/07/25 03:21:40;;;;;;;7.17;2.30;;;;;;;;;;5063546;28;20044;-69
2023/07/25 03:24:08;;;;;;;5.68;1.98;;;;;;;;;;5070116;28;20098;-69
2023/07/25 03:26:37;;;;;;;8.90;2.25;;;;;;;;;;5059440;28;20056;-71
2023/07/25 03:29:05;;;;;;;7.50;2.13;;;;;;;;;;5068141;28;20048;-69
2023/07/25 03:31:32;;;;;;;7.88;2.45;;;;;;;;;;5049979;28;20048;-69
2023/07/25 03:34:02;;;;;;;5.70;2.40;;;;;;;;;;5066003;28;20040;-69
2023/07/25 03:36:30;;;;;;;10.57;2.20;;;;;;;;;;5059148;28;20051;-70
2023/07/25 03:38:58;;;;;;;6.68;2.03;;;;;;;;;;5061321;28;20058;-69
2023/07/25 03:41:25;;;;;;;7.57;2.10;;;;;;;;;;5067588;28;20044;-69
2023/07/25 03:43:54;;;;;;;7.57;2.40;;;;;;;;;;5060893;28;20048;-69
2023/07/25 03:46:22;;;;;;;6.60;2.23;;;;;;;;;;5051318;28;21308;-69
2023/07/25 03:48:50;;;;;;;6.63;2.30;;;;;;;;;;5066570;28;20048;-69
2023/07/25 03:51:18;;;;;;;8.20;2.25;;;;;;;;;;5060208;28;20044;-70
2023/07/25 03:53:45;;;;;;;7.53;2.35;;;;;;;;;;5058607;28;20044;-70
2023/07/25 03:56:13;;;;;;;6.82;2.60;;;;;;;;;;5035816;28;21512;-69
2023/07/25 03:58:41;;;;;;;7.47;2.60;;;;;;;;;;5058176;28;20052;-65
2023/07/25 04:01:10;;;;;;;8.07;2.95;;;;;;;;;;5064141;28;20067;-70
2023/07/25 04:03:38;;;;;;;9.85;2.75;;;;;;;;;;5051347;28;20511;-69
2023/07/25 04:06:06;;;;;;;12.65;3.55;;;;;;;;;;5059111;28;20048;-69
2023/07/25 04:08:34;;;;;;;13.60;3.95;;;;;;;;;;5051123;28;20238;-69
2023/07/25 04:11:01;;;;;;;9.37;3.40;;;;;;;;;;5073043;28;20074;-65
2023/07/25 04:13:29;;;;;;;10.20;4.10;;;;;;;;;;5060345;28;20040;-69
2023/07/25 04:15:57;;;;;;;10.73;4.03;;;;;;;;;;5072824;28;20044;-69
2023/07/25 04:18:26;;;;;;;10.30;3.22;;;;;;;;;;5047964;28;20044;-69
2023/07/25 04:20:53;;;;;;;9.75;3.20;;;;;;;;;;5064347;28;20048;-70
2023/07/25 04:23:21;;;;;;;16.13;3.90;;;;;;;;;;5065668;28;20044;-69
2023/07/25 04:25:50;;;;;;;11.00;3.15;;;;;;;;;;5064653;28;20048;-68
2023/07/25 04:28:18;;;;;;;10.02;3.38;;;;;;;;;;5065756;28;20051;-71
2023/07/25 04:30:45;;;;;;;8.80;2.90;;;;;;;;;;5066166;28;20078;-70
2023/07/25 04:33:13;;;;;;;8.15;3.25;;;;;;;;;;5065720;28;20040;-70
2023/07/25 04:35:45;;;;;;;9.67;3.30;;;;;;;;;;5069805;28;20458;-69
2023/07/25 04:38:13;;;;;;;7.20;2.85;;;;;;;;;;5057969;28;20048;-69
2023/07/25 04:40:40;;;;;;;9.02;2.50;;;;;;;;;;5066044;28;20059;-69
2023/07/25 04:43:08;;;;;;;9.40;3.08;;;;;;;;;;5052761;28;21215;-68
2023/07/25 04:45:36;;;;;;;9.20;3.15;;;;;;;;;;5057978;28;20048;-69
2023/07/25 04:48:04;;;;;;;8.70;2.73;;;;;;;;;;5050523;28;20682;-70
2023/07/25 04:50:32;;;;;;;9.18;2.63;;;;;;;;;;5059276;28;20129;-70
2023/07/25 04:53:01;;;;;;;6.78;2.58;;;;;;;;;;5055897;28;20147;-69
2023/07/25 04:55:28;;;;;;;6.20;2.20;;;;;;;;;;5056088;28;20058;-70
2023/07/25 04:57:56;;;;;;;6.38;2.35;;;;;;;;;;5059370;28;20498;-70
2023/07/25 05:00:24;;;;;;;9.50;2.63;;;;;;;;;;5065402;28;20067;-69
2023/07/25 05:02:51;;;;;;;6.40;2.45;;;;;;;;;;5059138;28;20395;-70
2023/07/25 05:05:20;;;;;;;7.55;3.28;;;;;;;;;;5064238;28;20055;-70
2023/07/25 05:07:48;;;;;;;6.15;2.20;;;;;;;;;;5046687;28;20036;-71
2023/07/25 05:10:17;;;;;;;6.78;2.47;;;;;;;;;;5052336;28;20052;-70
2023/07/25 05:12:45;;;;;;;8.20;2.70;;;;;;;;;;5070889;28;20052;-70
2023/07/25 05:15:12;;;;;;;6.15;2.60;;;;;;;;;;5061176;28;20483;-71
2023/07/25 05:17:40;;;;;;;7.05;3.03;;;;;;;;;;5072627;28;20318;-71
2023/07/25 05:20:09;;;;;;;10.45;2.60;;;;;;;;;;5047074;28;20151;-70
2023/07/25 05:22:37;;;;;;;7.45;2.88;;;;;;;;;;5069372;28;20051;-70
2023/07/25 05:25:07;;;;;;;5.87;2.37;;;;;;;;;;5067736;28;20044;-70
2023/07/25 05:27:36;;;;;;;7.00;2.78;;;;;;;;;;5049647;28;20127;-70
2023/07/25 05:30:05;;;;;;;7.55;2.95;;;;;;;;;;5063877;28;20051;-70
2023/07/25 05:32:32;;;;;;;7.47;2.65;;;;;;;;;;5045638;28;20131;-70
2023/07/25 05:35:04;;;;;;;9.75;2.83;;;;;;;;;;5065259;28;20771;-70
2023/07/25 05:37:36;;;;;;;6.63;2.13;;;;;;;;;;5049566;28;20696;-70
2023/07/25 05:40:04;;;;;;;9.43;2.92;;;;;;;;;;5067840;28;20056;-70
2023/07/25 05:42:31;;;;;;;9.07;2.78;;;;;;;;;;5065461;28;20063;-70
2023/07/25 05:45:01;;;;;;;7.68;2.53;;;;;;;;;;5050889;28;20055;-71
2023/07/25 05:47:29;;;;;;;8.85;2.60;;;;;;;;;;5074047;28;20052;-70
2023/07/25 05:49:57;;;;;;;8.23;2.90;;;;;;;;;;5048932;28;20094;-70
2023/07/25 05:52:25;;;;;;;10.57;2.80;;;;;;;;;;5062839;28;20083;-70
2023/07/25 05:54:53;;;;;;;8.25;2.55;;;;;;;;;;5057717;28;20052;-71
2023/07/25 05:57:21;;;;;;;7.38;2.80;;;;;;;;;;5066100;28;20044;-71
2023/07/25 05:59:49;;;;;;;9.52;3.25;;;;;;;;;;5053869;28;20051;-70
2023/07/25 06:02:18;;;;;;;7.57;2.60;;;;;;;;;;5066407;28;20048;-69
2023/07/25 06:04:46;;;;;;;6.40;2.67;;;;;;;;;;5029201;28;20055;-70
2023/07/25 06:07:14;;;;;;;7.47;3.22;;;;;;;;;;5044439;28;20510;-70
2023/07/25 06:09:42;;;;;;;9.38;2.67;;;;;;;;;;5070332;28;20091;-69
2023/07/25 06:12:10;;;;;;;12.10;3.30;;;;;;;;;;5058159;28;20047;-70
2023/07/25 06:14:38;;;;;;;8.03;2.87;;;;;;;;;;5064073;28;20783;-71
2023/07/25 06:17:06;;;;;;;5.25;2.30;;;;;;;;;;5025336;28;20044;-69
2023/07/25 06:19:35;;;;;;;7.28;2.20;;;;;;;;;;5065265;28;20075;-70
2023/07/25 06:22:03;;;;;;;5.72;2.38;;;;;;;;;;5044924;28;20044;-69
2023/07/25 06:24:34;;;;;;;7.40;2.88;;;;;;;;;;5065206;28;20056;-70
2023/07/25 06:27:02;;;;;;;6.10;2.70;;;;;;;;;;5066150;28;20135;-66
2023/07/25 06:29:30;;;;;;;6.47;2.63;;;;;;;;;;5060692;28;20063;-70
2023/07/25 06:31:57;;;;;;;11.43;3.60;;;;;;;;;;5062365;28;20054;-71
2023/07/25 06:34:25;;;;;;;8.70;2.72;;;;;;;;;;5056497;28;20047;-70
2023/07/25 06:36:55;;;;;;;10.07;2.40;;;;;;;;;;5059637;28;20048;-70
2023/07/25 06:39:23;;;;;;;5.20;2.00;;;;;;;;;;5059907;28;20474;-70
2023/07/25 06:41:51;;;;;;;8.73;2.67;;;;;;;;;;5066511;28;20044;-70
2023/07/25 06:44:19;;;;;;;6.10;2.05;;;;;;;;;;5043353;28;20071;-70
2023/07/25 06:46:47;;;;;;;7.88;2.45;;;;;;;;;;5053991;28;20544;-70
2023/07/25 06:49:18;;;;;;;7.07;2.15;;;;;;;;;;5068183;28;20063;-69
2023/07/25 06:51:46;;;;;;;6.83;2.00;;;;;;;;;;5058603;28;20298;-69
2023/07/25 06:54:16;;;;;;;7.57;2.08;;;;;;;;;;5059042;28;20056;-70
2023/07/25 06:56:44;;;;;;;9.00;2.53;;;;;;;;;;5040138;28;20413;-70
2023/07/25 06:59:12;;;;;;;8.50;2.30;;;;;;;;;;5060993;28;20044;-69
2023/07/25 07:01:39;;;;;;;5.95;2.10;;;;;;;;;;5048214;28;20056;-68
2023/07/25 07:04:07;;;;;;;8.60;2.60;;;;;;;;;;5055294;28;20056;-70
2023/07/25 07:06:35;;;;;;;7.28;2.00;;;;;;;;;;5064687;28;20045;-69
2023/07/25 07:09:03;;;;;;;6.25;1.58;;;;;;;;;;5046879;28;20052;-69
2023/07/25 07:11:32;;;;;;;5.28;1.52;;;;;;;;;;5071715;28;20044;-70
2023/07/25 07:14:01;;;;;;;4.72;1.50;;;;;;;;;;5060848;28;20044;-69
2023/07/25 07:16:29;;;;;;;7.40;1.50;;;;;;;;;;5060792;28;20055;-69
2023/07/25 07:18:57;;;;;;;5.43;1.40;;;;;;;;;;5068845;28;20094;-70
2023/07/25 07:21:24;;;;;;;6.38;1.60;;;;;;;;;;5056103;28;20048;-70
2023/07/25 07:23:52;;;;;;;6.07;1.38;;;;;;;;;;5064369;28;20430;-70
2023/07/25 07:26:20;;;;;;;6.90;1.67;;;;;;;;;;5048975;28;20048;-70
2023/07/25 07:28:49;;;;;;;5.90;1.60;;;;;;;;;;5066643;28;20036;-70
2023/07/25 07:31:23;;;;;;;3.97;1.20;;;;;;;;;;5055409;28;20502;-70
2023/07/25 07:33:51;;;;;;;4.85;1.40;;;;;;;;;;5064009;28;20056;-71
2023/07/25 07:36:19;;;;;;;8.00;1.70;;;;;;;;;;5056668;28;20139;-71
2023/07/25 07:38:46;;;;;;;6.15;1.50;;;;;;;;;;5062765;28;20043;-71
2023/07/25 07:41:17;;;;;;;5.23;1.67;;;;;;;;;;5060042;28;20054;-71
2023/07/25 07:43:45;;;;;;;4.70;1.20;;;;;;;;;;5052282;28;20491;-70
2023/07/25 07:46:14;;;;;;;6.13;1.60;;;;;;;;;;5046720;28;20419;-71
2023/07/25 07:48:43;;;;;;;5.68;1.73;;;;;;;;;;5062288;28;20055;-62
2023/07/25 07:51:11;;;;;;;4.80;1.50;;;;;;;;;;5056122;28;20157;-70
2023/07/25 07:53:40;;;;;;;6.83;1.37;;;;;;;;;;5058186;28;20052;-69
2023/07/25 07:56:08;;;;;;;7.43;1.58;;;;;;;;;;5036486;28;20763;-68
2023/07/25 07:58:36;;;;;;;7.43;1.70;;;;;;;;;;5064269;28;20058;-69
2023/07/25 08:01:04;;;;;;;6.40;1.30;;;;;;;;;;5060440;28;20117;-68
2023/07/25 08:03:33;;;;;;;5.43;1.50;;;;;;;;;;4361030;28;10000500;-68
2023/07/25 08:06:00;;;;;;;7.13;1.63;;;;;;;;;;5059619;28;20056;-68
2023/07/25 08:08:28;;;;;;;5.90;1.33;;;;;;;;;;5051868;28;20048;-68
2023/07/25 08:11:00;;;;;;;6.67;1.63;;;;;;;;;;5059931;28;20052;-68
2023/07/25 08:13:27;;;;;;;4.38;1.50;;;;;;;;;;5045127;28;20052;-67
2023/07/25 08:15:55;;;;;;;5.82;1.85;;;;;;;;;;5058812;28;20056;-67
2023/07/25 08:18:23;;;;;;;7.63;1.50;;;;;;;;;;5052606;28;20048;-68
2023/07/25 08:20:55;;;;;;;5.40;1.42;;;;;;;;;;5054856;28;20056;-67
2023/07/25 08:23:23;;;;;;;6.27;1.23;;;;;;;;;;4694445;28;10000431;-67
2023/07/25 08:25:51;;;;;;;5.38;1.20;;;;;;;;;;5038191;28;20300;-68
2023/07/25 08:28:19;;;;;;;4.72;1.38;;;;;;;;;;5036142;28;20060;-68
2023/07/25 08:30:47;;;;;;;5.13;1.10;;;;;;;;;;5045845;28;20048;-67
2023/07/25 08:33:18;;;;;;;5.65;1.30;;;;;;;;;;5047677;28;20048;-68
2023/07/25 08:35:47;;;;;;;5.60;1.23;;;;;;;;;;5050792;28;20242;-68
2023/07/25 08:38:35;;;;;;;7.65;1.40;;;;;;;;;;5054214;28;20803;-67
2023/07/25 08:41:09;;;;;;;7.07;1.27;;;;;;;;;;5041968;28;21708;-66
2023/07/25 08:43:38;;;;;;;5.40;1.40;;;;;;;;;;5053545;28;20044;-70
2023/07/25 08:46:07;;;;;;;5.38;1.20;;;;;;;;;;5052597;28;20067;-70
2023/07/25 08:48:35;;;;;;;4.68;1.27;;;;;;;;;;5073431;28;20044;-69
2023/07/25 08:51:05;;;;;;;7.80;1.77;;;;;;;;;;5062491;28;20051;-69
2023/07/25 08:53:33;;;;;;;5.05;1.30;;;;;;;;;;5064325;28;20506;-69
2023/07/25 08:56:02;;;;;;;5.77;1.57;;;;;;;;;;5059972;28;20109;-69
2023/07/25 08:58:30;;;;;;;5.85;1.00;;;;;;;;;;5070792;28;20048;-69
2023/07/25 09:00:59;;;;;;;7.47;1.50;;;;;;;;;;5059805;28;20130;-69
2023/07/25 09:03:27;;;;;;;4.22;1.30;;;;;;;;;;5054783;28;20060;-69
2023/07/25 09:05:58;;;;;;;5.60;1.50;;;;;;;;;;5059499;28;20072;-69
2023/07/25 09:08:26;;;;;;;4.97;1.50;;;;;;;;;;5050929;28;20048;-68
2023/07/25 09:10:54;;;;;;;5.53;1.20;;;;;;;;;;5073650;28;20120;-69
2023/07/25 09:13:26;;;;;;;4.93;1.20;;;;;;;;;;5061069;28;20076;-68
2023/07/25 09:15:54;;;;;;;7.20;1.23;;;;;;;;;;5045560;28;20580;-65
2023/07/25 09:18:21;;;;;;;4.72;1.20;;;;;;;;;;5062662;28;20421;-69
2023/07/25 09:20:49;;;;;;;7.23;1.83;;;;;;;;;;5071912;28;20056;-68
2023/07/25 09:23:20;;;;;;;4.95;0.85;;;;;;;;;;5062765;28;20048;-69
2023/07/25 09:25:50;;;;;;;4.30;1.08;;;;;;;;;;5060695;28;20167;-68
2023/07/25 09:28:18;;;;;;;4.57;1.42;;;;;;;;;;5071848;28;20075;-69
2023/07/25 09:30:50;;;;;;;3.72;0.80;;;;;;;;;;5060137;28;20093;-69
2023/07/25 09:33:24;;;;;;;9.40;1.13;;;;;;;;;;5071428;28;20429;-69
2023/07/25 09:35:52;;;;;;;6.78;1.60;;;;;;;;;;5064489;28;20378;-69
2023/07/25 09:38:20;;;;;;;5.53;1.30;;;;;;;;;;5070419;28;20051;-69
2023/07/25 09:40:48;;;;;;;4.35;1.20;;;;;;;;;;5064596;28;20046;-69
2023/07/25 09:43:23;;;;;;;6.18;1.90;;;;;;;;;;5063155;28;20057;-68
2023/07/25 09:45:53;;;;;;;4.37;1.33;;;;;;;;;;5053915;28;20052;-68
2023/07/25 09:48:21;;;;;;;5.10;1.10;;;;;;;;;;5061536;28;20469;-67
2023/07/25 09:50:49;;;;;;;5.95;1.67;;;;;;;;;;5074162;28;20056;-68
2023/07/25 09:53:21;;;;;;;6.57;0.88;;;;;;;;;;5049609;28;20051;-69
2023/07/25 09:55:49;;;;;;;4.78;1.13;;;;;;;;;;5064233;28;20040;-69
2023/07/25 09:58:18;;;;;;;5.73;1.53;;;;;;;;;;5063292;28;21122;-68
2023/07/25 10:00:46;;;;;;;4.90;1.38;;;;;;;;;;5065236;28;20071;-69
2023/07/25 10:03:16;;;;;;;4.65;1.15;;;;;;;;;;5063599;28;20052;-70
2023/07/25 10:05:44;;;;;;;5.03;1.17;;;;;;;;;;5049976;28;20041;-69
2023/07/25 10:08:12;;;;;;;4.80;1.40;;;;;;;;;;5072618;28;20055;-70
2023/07/25 10:10:41;;;;;;;4.07;1.27;;;;;;;;;;5056215;28;20054;-69
2023/07/25 10:13:09;;;;;;;4.60;1.13;;;;;;;;;;5056399;28;20059;-69
2023/07/25 10:15:37;;;;;;;6.47;1.83;;;;;;;;;;5052782;28;20055;-69
2023/07/25 10:18:17;;;;;;;5.13;1.10;;;;;;;;;;5062424;28;21793;-70
2023/07/25 10:20:46;;;;;;;4.70;1.23;;;;;;;;;;5067503;28;20040;-68
2023/07/25 10:23:17;;;;;;;4.75;1.30;;;;;;;;;;4798070;28;10001197;-69
2023/07/25 10:25:45;;;;;;;7.32;1.05;;;;;;;;;;4714029;28;9999895;-68
2023/07/25 10:28:13;;;;;;;4.65;1.33;;;;;;;;;;5054652;28;20086;-69
2023/07/25 10:30:43;;;;;;;5.00;1.57;;;;;;;;;;5043421;28;20051;-70
2023/07/25 10:33:12;;;;;;;5.03;1.85;;;;;;;;;;5043450;28;20079;-71
2023/07/25 10:35:40;;;;;;;5.68;1.38;;;;;;;;;;5030483;28;20059;-70
2023/07/25 10:38:11;;;;;;;5.43;1.52;;;;;;;;;;5046378;28;20060;-70
2023/07/25 10:40:52;;;;;;;5.32;1.50;;;;;;;;;;5038131;28;20048;-69
2023/07/25 10:43:21;;;;;;;5.30;1.80;;;;;;;;;;5042964;28;21274;-69
2023/07/25 10:45:50;;;;;;;5.45;1.73;;;;;;;;;;5053921;28;20087;-69
2023/07/25 10:48:28;;;;;;;5.78;1.60;;;;;;;;;;5022979;28;20040;-69
2023/07/25 10:50:56;;;;;;;5.63;1.55;;;;;;;;;;5047494;28;20253;-70
2023/07/25 10:53:25;;;;;;;4.40;1.27;;;;;;;;;;5048507;28;20144;-69
2023/07/25 10:56:09;;;;;;;4.63;1.00;;;;;;;;;;5059376;28;20143;-70
2023/07/25 10:58:38;;;;;;;5.55;1.30;;;;;;;;;;5062635;28;20227;-70
2023/07/25 11:01:06;;;;;;;5.20;1.05;;;;;;;;;;5068775;28;20048;-69
2023/07/25 11:03:43;;;;;;;5.57;1.55;;;;;;;;;;5066011;28;20615;-67
2023/07/25 11:06:29;;;;;;;5.43;1.35;;;;;;;;;;5045414;28;20044;-69
2023/07/25 11:08:59;;;;;;;6.37;1.50;;;;;;;;;;5055798;28;20119;-70
2023/07/25 11:11:27;;;;;;;5.65;1.55;;;;;;;;;;5064297;28;20059;-70
2023/07/25 11:13:56;;;;;;;5.15;1.40;;;;;;;;;;5068406;28;20052;-70
2023/07/25 11:16:23;;;;;;;6.30;1.30;;;;;;;;;;5055742;28;20081;-70
2023/07/25 11:18:51;;;;;;;3.95;1.55;;;;;;;;;;5070723;28;20071;-70
2023/07/25 11:21:19;;;;;;;6.93;1.83;;;;;;;;;;5061160;28;20468;-70
2023/07/25 11:23:47;;;;;;;5.85;1.40;;;;;;;;;;5068195;28;20516;-70
2023/07/25 11:26:16;;;;;;;6.70;1.48;;;;;;;;;;5059107;28;20051;-70
2023/07/25 11:28:44;;;;;;;4.75;1.10;;;;;;;;;;5059470;28;20072;-69
2023/07/25 11:31:11;;;;;;;4.18;1.08;;;;;;;;;;5059632;28;20047;-69
2023/07/25 11:33:41;;;;;;;5.50;1.67;;;;;;;;;;5060228;28;20052;-70
2023/07/25 11:36:09;;;;;;;4.68;1.35;;;;;;;;;;5059310;28;20048;-69
2023/07/25 11:38:37;;;;;;;6.00;1.50;;;;;;;;;;5048667;28;20470;-70
2023/07/25 11:41:05;;;;;;;4.28;1.20;;;;;;;;;;5060784;28;20058;-69
2023/07/25 11:43:35;;;;;;;4.15;1.08;;;;;;;;;;5063808;28;20612;-69
2023/07/25 11:46:04;;;;;;;5.13;1.30;;;;;;;;;;5055853;28;20341;-68
2023/07/25 11:48:32;;;;;;;4.57;1.40;;;;;;;;;;5068166;28;20072;-69
2023/07/25 11:51:00;;;;;;;5.95;1.95;;;;;;;;;;5059193;28;20052;-68
2023/07/25 11:53:28;;;;;;;6.13;1.13;;;;;;;;;;5054987;28;20083;-69
2023/07/25 11:55:56;;;;;;;4.53;1.10;;;;;;;;;;5056580;28;20058;-68
2023/07/25 11:58:24;;;;;;;5.37;1.10;;;;;;;;;;5068594;28;20048;-69
2023/07/25 12:00:54;;;;;;;5.22;1.23;;;;;;;;;;5057787;28;20496;-68
2023/07/25 12:03:23;;;;;;;5.10;1.48;;;;;;;;;;5059315;28;20202;-68
2023/07/25 12:05:56;;;;;;;4.30;1.20;;;;;;;;;;5057794;28;20480;-69
2023/07/25 12:08:32;;;;;;;4.72;1.15;;;;;;;;;;5062703;28;20044;-68
2023/07/25 12:11:01;;;;;;;4.13;1.13;;;;;;;;;;5071662;28;20053;-69
2023/07/25 12:13:29;;;;;;;4.95;1.15;;;;;;;;;;5063417;28;20245;-69
2023/07/25 12:16:00;;;;;;;4.40;1.15;;;;;;;;;;5065666;28;20044;-69
2023/07/25 12:18:28;;;;;;;4.82;1.20;;;;;;;;;;5052762;28;20040;-69
2023/07/25 12:20:57;;;;;;;6.22;1.42;;;;;;;;;;5072183;28;20048;-71
2023/07/25 12:23:27;;;;;;;3.73;0.80;;;;;;;;;;5069200;28;20403;-70
2023/07/25 12:25:56;;;;;;;3.72;0.85;;;;;;;;;;5058917;28;20048;-70
2023/07/25 12:28:24;;;;;;;3.78;0.93;;;;;;;;;;5063947;28;20078;-70
2023/07/25 12:30:51;;;;;;;4.22;1.10;;;;;;;;;;5065683;28;20070;-69
2023/07/25 12:33:21;;;;;;;4.05;0.85;;;;;;;;;;5062970;28;20489;-69
2023/07/25 12:35:48;;;;;;;3.23;0.90;;;;;;;;;;5051573;28;20113;-68
2023/07/25 12:38:16;;;;;;;4.95;1.10;;;;;;;;;;5066613;28;20054;-69
2023/07/25 12:40:44;;;;;;;5.57;0.90;;;;;;;;;;5063312;28;20052;-69
2023/07/25 12:43:16;;;;;;;3.70;0.90;;;;;;;;;;5051366;28;20117;-70
2023/07/25 12:46:02;;;;;;;2.82;0.60;;;;;;;;;;4901015;28;10001470;-68
2023/07/25 12:48:33;;;;;;;6.75;0.95;;;;;;;;;;5057426;28;20637;-68
2023/07/25 12:51:01;;;;;;;6.60;0.90;;;;;;;;;;5060351;28;20056;-68
2023/07/25 12:53:29;;;;;;;3.03;0.75;;;;;;;;;;4365093;28;10021562;-68
2023/07/25 12:55:56;;;;;;;3.53;0.97;;;;;;;;;;5066161;28;20763;-69
2023/07/25 12:58:24;;;;;;;3.35;0.52;;;;;;;;;;5060125;28;20044;-69
2023/07/25 13:00:52;;;;;;;4.30;1.00;;;;;;;;;;5070430;28;20062;-68
2023/07/25 13:03:23;;;;;;;4.35;0.80;;;;;;;;;;5059691;28;20055;-68
2023/07/25 13:05:53;;;;;;;4.80;1.20;;;;;;;;;;5065544;28;20106;-68
2023/07/25 13:08:22;;;;;;;2.87;0.70;;;;;;;;;;5061223;28;20051;-68
2023/07/25 13:11:08;;;;;;;3.70;0.82;;;;;;;;;;5067444;28;20126;-68
2023/07/25 13:13:37;;;;;;;4.97;0.77;;;;;;;;;;5060945;28;20138;-68
2023/07/25 13:16:06;;;;;;;3.95;0.60;;;;;;;;;;5061670;28;20521;-68
2023/07/25 13:18:34;;;;;;;3.90;1.00;;;;;;;;;;5068642;28;20048;-68
2023/07/25 13:21:03;;;;;;;3.23;0.77;;;;;;;;;;5058620;28;20070;-68
2023/07/25 13:23:31;;;;;;;3.83;1.20;;;;;;;;;;5074266;28;20044;-68
2023/07/25 13:25:58;;;;;;;3.13;0.77;;;;;;;;;;5054802;28;20055;-68
2023/07/25 13:28:26;;;;;;;4.82;1.17;;;;;;;;;;5054132;28;20134;-68
2023/07/25 13:30:55;;;;;;;4.93;0.90;;;;;;;;;;5059487;28;20135;-68
2023/07/25 13:33:23;;;;;;;3.77;0.90;;;;;;;;;;5058605;28;20076;-68
2023/07/25 13:35:51;;;;;;;2.90;0.65;;;;;;;;;;5063112;28;20048;-70
2023/07/25 13:38:20;;;;;;;3.10;0.68;;;;;;;;;;5065632;28;20052;-70
2023/07/25 13:40:48;;;;;;;4.10;0.90;;;;;;;;;;5062422;28;20135;-68
2023/07/25 13:43:16;;;;;;;3.28;0.70;;;;;;;;;;5063946;28;20040;-68
2023/07/25 13:45:44;;;;;;;4.53;1.00;;;;;;;;;;5063453;28;20048;-67
2023/07/25 13:48:20;;;;;;;3.22;0.90;;;;;;;;;;5057115;28;20051;-68
2023/07/25 13:50:51;;;;;;;4.53;0.80;;;;;;;;;;5070735;28;20048;-70
2023/07/25 13:53:27;;;;;;;3.72;1.15;;;;;;;;;;5056196;28;20097;-70
2023/07/25 13:55:54;;;;;;;4.05;0.90;;;;;;;;;;5068884;28;20418;-70
2023/07/25 13:58:22;;;;;;;3.80;1.10;;;;;;;;;;5011783;28;20469;-69
2023/07/25 14:00:51;;;;;;;4.53;1.30;;;;;;;;;;5076232;28;20060;-70
2023/07/25 14:03:19;;;;;;;4.47;0.70;;;;;;;;;;5057216;28;20136;-69
2023/07/25 14:05:46;;;;;;;4.57;0.90;;;;;;;;;;5056837;28;20100;-69
2023/07/25 14:08:14;;;;;;;3.33;0.60;;;;;;;;;;5070451;28;20062;-71
2023/07/25 14:10:43;;;;;;;3.43;0.93;;;;;;;;;;5053390;28;20040;-68
2023/07/25 14:13:11;;;;;;;3.90;0.80;;;;;;;;;;5056228;28;20050;-68
2023/07/25 14:15:40;;;;;;;4.55;1.00;;;;;;;;;;5068468;28;20056;-69
2023/07/25 14:18:08;;;;;;;3.70;1.10;;;;;;;;;;5050629;28;20560;-68
2023/07/25 14:20:37;;;;;;;5.03;1.00;;;;;;;;;;5072106;28;20056;-69
2023/07/25 14:23:09;;;;;;;3.77;1.20;;;;;;;;;;5057897;28;20051;-69
2023/07/25 14:25:37;;;;;;;3.22;0.60;;;;;;;;;;5054022;28;20051;-68
2023/07/25 14:28:06;;;;;;;5.45;1.05;;;;;;;;;;5061922;28;20054;-69
2023/07/25 14:30:34;;;;;;;4.68;1.20;;;;;;;;;;5068649;28;20555;-69
2023/07/25 14:33:02;;;;;;;4.05;1.30;;;;;;;;;;5053322;28;20055;-68
2023/07/25 14:35:30;;;;;;;3.70;1.00;;;;;;;;;;5072814;28;20709;-68
2023/07/25 14:37:58;;;;;;;4.43;1.00;;;;;;;;;;5056613;28;20044;-69
2023/07/25 14:40:28;;;;;;;4.30;0.73;;;;;;;;;;5063128;28;20251;-69
2023/07/25 14:42:56;;;;;;;4.95;0.85;;;;;;;;;;5056473;28;20674;-69
2023/07/25 14:45:25;;;;;;;4.78;1.10;;;;;;;;;;5072042;28;20055;-68
2023/07/25 14:47:54;;;;;;;5.27;0.90;;;;;;;;;;5059298;28;20044;-68
2023/07/25 14:50:22;;;;;;;4.18;1.02;;;;;;;;;;5057509;28;20125;-70